sensor_id;sensor_type;location;lat;lon;timestamp;temperature;humidity
21115;DHT22;10715;48.546;9.896;2023-04-24T00:01:41;9.40;99.90
21115;DHT22;10715;48.546;9.896;2023-04-24T00:04:08;9.40;99.90
21115;DHT22;10715;48.546;9.896;2023-04-24T00:06:36;9.40;99.90
21115;DHT22;10715;48.546;9.896;2023-04-24T00:09:03;9.40;99.90
21115;DHT22;10715;48.546;9.896;2023-04-24T00:11:29;9.40;99.90
21115;DHT22;10715;48.546;9.896;2023-04-24T00:13:56;9.40;99.90
21115;DHT22;10715;48.546;9.896;2023-04-24T00:16:22;9.40;99.90
21115;DHT22;10715;48.546;9.896;2023-04-24T00:18:49;9.40;99.90
21115;DHT22;10715;48.546;9.896;2023-04-24T00:21:15;9.40;99.90
21115;DHT22;10715;48.546;9.896;2023-04-24T00:23:44;9.30;99.90
21115;DHT22;10715;48.546;9.896;2023-04-24T00:26:10;9.30;99.90
21115;DHT22;10715;48.546;9.896;2023-04-24T00:28:35;9.30;99.90
21115;DHT22;10715;48.546;9.896;2023-04-24T00:31:01;9.30;99.90
21115;DHT22;10715;48.546;9.896;2023-04-24T00:33:27;9.30;99.90
21115;DHT22;10715;48.546;9.896;2023-04-24T00:35:52;9.30;99.90
21115;DHT22;10715;48.546;9.896;2023-04-24T00:38:18;9.30;99.90
21115;DHT22;10715;48.546;9.896;2023-04-24T00:40:44;9.30;99.90
21115;DHT22;10715;48.546;9.896;2023-04-24T00:43:10;9.20;99.90
21115;DHT22;10715;48.546;9.896;2023-04-24T00:45:36;9.20;99.90
21115;DHT22;10715;48.546;9.896;2023-04-24T00:48:02;9.20;99.90
21115;DHT22;10715;48.546;9.896;2023-04-24T00:50:28;9.20;99.90
21115;DHT22;10715;48.546;9.896;2023-04-24T00:52:54;9.20;99.90
21115;DHT22;10715;48.546;9.896;2023-04-24T00:55:20;9.20;99.90
21115;DHT22;10715;48.546;9.896;2023-04-24T00:57:46;9.20;99.90
21115;DHT22;10715;48.546;9.896;2023-04-24T01:00:15;9.20;99.90
21115;DHT22;10715;48.546;9.896;2023-04-24T01:02:43;9.20;99.90
21115;DHT22;10715;48.546;9.896;2023-04-24T01:05:14;9.20;99.90
21115;DHT22;10715;48.546;9.896;2023-04-24T01:07:41;9.20;99.90
21115;DHT22;10715;48.546;9.896;2023-04-24T01:10:11;9.20;99.90
21115;DHT22;10715;48.546;9.896;2023-04-24T01:12:38;9.20;99.90
21115;DHT22;10715;48.546;9.896;2023-04-24T01:15:04;9.20;99.90
21115;DHT22;10715;48.546;9.896;2023-04-24T01:17:31;9.20;99.90
21115;DHT22;10715;48.546;9.896;2023-04-24T01:19:56;9.20;99.90
21115;DHT22;10715;48.546;9.896;2023-04-24T01:22:22;9.20;99.90
21115;DHT22;10715;48.546;9.896;2023-04-24T01:24:48;9.10;99.90
21115;DHT22;10715;48.546;9.896;2023-04-24T01:27:14;9.10;99.90
21115;DHT22;10715;48.546;9.896;2023-04-24T01:29:40;9.10;99.90
21115;DHT22;10715;48.546;9.896;2023-04-24T01:32:06;9.10;99.90
21115;DHT22;10715;48.546;9.896;2023-04-24T01:34:33;9.10;99.90
21115;DHT22;10715;48.546;9.896;2023-04-24T01:36:59;9.10;99.90
21115;DHT22;10715;48.546;9.896;2023-04-24T01:39:26;9.10;99.90
21115;DHT22;10715;48.546;9.896;2023-04-24T01:41:54;9.10;99.90
21115;DHT22;10715;48.546;9.896;2023-04-24T01:44:21;9.10;99.90
21115;DHT22;10715;48.546;9.896;2023-04-24T01:46:46;9.10;99.90
21115;DHT22;10715;48.546;9.896;2023-04-24T01:49:12;9.00;99.90
21115;DHT22;10715;48.546;9.896;2023-04-24T01:51:38;9.00;99.90
21115;DHT22;10715;48.546;9.896;2023-04-24T01:54:04;9.00;99.90
21115;DHT22;10715;48.546;9.896;2023-04-24T01:56:33;9.00;99.90
21115;DHT22;10715;48.546;9.896;2023-04-24T01:59:02;9.00;99.90
21115;DHT22;10715;48.546;9.896;2023-04-24T02:01:34;9.00;99.90
21115;DHT22;10715;48.546;9.896;2023-04-24T02:04:01;8.90;99.90
21115;DHT22;10715;48.546;9.896;2023-04-24T02:06:27;8.90;99.90
21115;DHT22;10715;48.546;9.896;2023-04-24T02:08:53;8.90;99.90
21115;DHT22;10715;48.546;9.896;2023-04-24T02:11:18;8.90;99.90
21115;DHT22;10715;48.546;9.896;2023-04-24T02:13:44;8.90;99.90
21115;DHT22;10715;48.546;9.896;2023-04-24T02:16:10;8.90;99.90
21115;DHT22;10715;48.546;9.896;2023-04-24T02:18:35;8.90;99.90
21115;DHT22;10715;48.546;9.896;2023-04-24T02:21:01;8.80;99.90
21115;DHT22;10715;48.546;9.896;2023-04-24T02:23:27;8.80;99.90
21115;DHT22;10715;48.546;9.896;2023-04-24T02:25:53;8.80;99.90
21115;DHT22;10715;48.546;9.896;2023-04-24T02:28:19;8.80;99.90
21115;DHT22;10715;48.546;9.896;2023-04-24T02:30:45;8.80;99.90
21115;DHT22;10715;48.546;9.896;2023-04-24T02:33:11;8.80;99.90
21115;DHT22;10715;48.546;9.896;2023-04-24T02:35:37;8.80;99.90
21115;DHT22;10715;48.546;9.896;2023-04-24T02:38:03;8.80;99.90
21115;DHT22;10715;48.546;9.896;2023-04-24T02:40:29;8.80;99.90
21115;DHT22;10715;48.546;9.896;2023-04-24T02:42:55;8.80;99.90
21115;DHT22;10715;48.546;9.896;2023-04-24T02:45:21;8.80;99.90
21115;DHT22;10715;48.546;9.896;2023-04-24T02:47:46;8.80;99.90
21115;DHT22;10715;48.546;9.896;2023-04-24T02:50:12;8.70;99.90
21115;DHT22;10715;48.546;9.896;2023-04-24T02:52:38;8.80;99.90
21115;DHT22;10715;48.546;9.896;2023-04-24T02:55:05;8.80;99.90
21115;DHT22;10715;48.546;9.896;2023-04-24T02:57:31;8.70;99.90
21115;DHT22;10715;48.546;9.896;2023-04-24T02:59:56;8.70;99.90
21115;DHT22;10715;48.546;9.896;2023-04-24T03:02:22;8.70;99.90
21115;DHT22;10715;48.546;9.896;2023-04-24T03:04:48;8.70;99.90
21115;DHT22;10715;48.546;9.896;2023-04-24T03:07:14;8.70;99.90
21115;DHT22;10715;48.546;9.896;2023-04-24T03:09:40;8.70;99.90
21115;DHT22;10715;48.546;9.896;2023-04-24T03:12:06;8.70;99.90
21115;DHT22;10715;48.546;9.896;2023-04-24T03:14:32;8.70;99.90
21115;DHT22;10715;48.546;9.896;2023-04-24T03:16:58;8.70;99.90
21115;DHT22;10715;48.546;9.896;2023-04-24T03:19:24;8.60;99.90
21115;DHT22;10715;48.546;9.896;2023-04-24T03:21:50;8.60;99.90
21115;DHT22;10715;48.546;9.896;2023-04-24T03:24:16;8.60;99.90
21115;DHT22;10715;48.546;9.896;2023-04-24T03:26:41;8.60;99.90
21115;DHT22;10715;48.546;9.896;2023-04-24T03:29:07;8.60;99.90
21115;DHT22;10715;48.546;9.896;2023-04-24T03:31:33;8.60;99.90
21115;DHT22;10715;48.546;9.896;2023-04-24T03:33:58;8.60;99.90
21115;DHT22;10715;48.546;9.896;2023-04-24T03:36:24;8.60;99.90
21115;DHT22;10715;48.546;9.896;2023-04-24T03:38:50;8.60;99.90
21115;DHT22;10715;48.546;9.896;2023-04-24T03:41:15;8.60;99.90
21115;DHT22;10715;48.546;9.896;2023-04-24T03:43:41;8.60;99.90
21115;DHT22;10715;48.546;9.896;2023-04-24T03:46:07;8.60;99.90
21115;DHT22;10715;48.546;9.896;2023-04-24T03:48:35;8.60;99.90
21115;DHT22;10715;48.546;9.896;2023-04-24T03:51:00;8.60;99.90
21115;DHT22;10715;48.546;9.896;2023-04-24T03:53:26;8.60;99.90
21115;DHT22;10715;48.546;9.896;2023-04-24T03:55:53;8.60;99.90
21115;DHT22;10715;48.546;9.896;2023-04-24T03:58:18;8.60;99.90
21115;DHT22;10715;48.546;9.896;2023-04-24T04:00:44;8.60;99.90
21115;DHT22;10715;48.546;9.896;2023-04-24T04:03:12;8.60;99.90
21115;DHT22;10715;48.546;9.896;2023-04-24T04:05:39;8.60;99.90
21115;DHT22;10715;48.546;9.896;2023-04-24T04:08:05;8.60;99.90
21115;DHT22;10715;48.546;9.896;2023-04-24T04:10:31;8.60;99.90
21115;DHT22;10715;48.546;9.896;2023-04-24T04:12:56;8.60;99.90
21115;DHT22;10715;48.546;9.896;2023-04-24T04:15:22;8.60;99.90
21115;DHT22;10715;48.546;9.896;2023-04-24T04:17:48;8.60;99.90
21115;DHT22;10715;48.546;9.896;2023-04-24T04:20:14;8.60;99.90
21115;DHT22;10715;48.546;9.896;2023-04-24T04:22:40;8.50;99.90
21115;DHT22;10715;48.546;9.896;2023-04-24T04:25:05;8.50;99.90
21115;DHT22;10715;48.546;9.896;2023-04-24T04:27:32;8.50;99.90
21115;DHT22;10715;48.546;9.896;2023-04-24T04:30:07;8.60;99.90
21115;DHT22;10715;48.546;9.896;2023-04-24T04:32:36;8.60;99.90
21115;DHT22;10715;48.546;9.896;2023-04-24T04:35:02;8.60;99.90
21115;DHT22;10715;48.546;9.896;2023-04-24T04:37:37;8.60;99.90
21115;DHT22;10715;48.546;9.896;2023-04-24T04:40:04;8.60;99.90
21115;DHT22;10715;48.546;9.896;2023-04-24T04:42:32;8.60;99.90
21115;DHT22;10715;48.546;9.896;2023-04-24T04:45:01;8.60;99.90
21115;DHT22;10715;48.546;9.896;2023-04-24T04:47:27;8.60;99.90
21115;DHT22;10715;48.546;9.896;2023-04-24T04:49:54;8.60;99.90
21115;DHT22;10715;48.546;9.896;2023-04-24T04:52:20;8.60;99.90
21115;DHT22;10715;48.546;9.896;2023-04-24T04:54:50;8.60;99.90
21115;DHT22;10715;48.546;9.896;2023-04-24T04:57:16;8.60;99.90
21115;DHT22;10715;48.546;9.896;2023-04-24T04:59:41;8.60;99.90
21115;DHT22;10715;48.546;9.896;2023-04-24T05:02:07;8.60;99.90
21115;DHT22;10715;48.546;9.896;2023-04-24T05:04:33;8.60;99.90
21115;DHT22;10715;48.546;9.896;2023-04-24T05:06:59;8.60;99.90
21115;DHT22;10715;48.546;9.896;2023-04-24T05:09:24;8.60;99.90
21115;DHT22;10715;48.546;9.896;2023-04-24T05:11:53;8.60;99.90
21115;DHT22;10715;48.546;9.896;2023-04-24T05:14:18;8.60;99.90
21115;DHT22;10715;48.546;9.896;2023-04-24T05:16:44;8.60;99.90
21115;DHT22;10715;48.546;9.896;2023-04-24T05:19:10;8.60;99.90
21115;DHT22;10715;48.546;9.896;2023-04-24T05:21:37;8.60;99.90
21115;DHT22;10715;48.546;9.896;2023-04-24T05:24:05;8.60;99.90
21115;DHT22;10715;48.546;9.896;2023-04-24T05:26:31;8.60;99.90
21115;DHT22;10715;48.546;9.896;2023-04-24T05:28:57;8.70;99.90
21115;DHT22;10715;48.546;9.896;2023-04-24T05:31:22;8.70;99.90
21115;DHT22;10715;48.546;9.896;2023-04-24T05:33:48;8.70;99.90
21115;DHT22;10715;48.546;9.896;2023-04-24T05:36:14;8.70;99.90
21115;DHT22;10715;48.546;9.896;2023-04-24T05:38:40;8.70;99.90
21115;DHT22;10715;48.546;9.896;2023-04-24T05:41:06;8.70;99.90
21115;DHT22;10715;48.546;9.896;2023-04-24T05:43:31;8.70;99.90
21115;DHT22;10715;48.546;9.896;2023-04-24T05:45:57;8.70;99.90
21115;DHT22;10715;48.546;9.896;2023-04-24T05:48:23;8.80;99.90
21115;DHT22;10715;48.546;9.896;2023-04-24T05:50:48;8.80;99.90
21115;DHT22;10715;48.546;9.896;2023-04-24T05:53:14;8.80;99.90
21115;DHT22;10715;48.546;9.896;2023-04-24T05:55:40;8.80;99.90
21115;DHT22;10715;48.546;9.896;2023-04-24T05:58:06;8.80;99.90
21115;DHT22;10715;48.546;9.896;2023-04-24T06:00:32;8.80;99.90
21115;DHT22;10715;48.546;9.896;2023-04-24T06:02:59;8.80;99.90
21115;DHT22;10715;48.546;9.896;2023-04-24T06:05:25;8.70;99.90
21115;DHT22;10715;48.546;9.896;2023-04-24T06:07:51;8.70;99.90
21115;DHT22;10715;48.546;9.896;2023-04-24T06:10:17;8.70;99.90
21115;DHT22;10715;48.546;9.896;2023-04-24T06:12:43;8.70;99.90
21115;DHT22;10715;48.546;9.896;2023-04-24T06:15:09;8.60;99.90
21115;DHT22;10715;48.546;9.896;2023-04-24T06:17:35;8.60;99.90
21115;DHT22;10715;48.546;9.896;2023-04-24T06:20:00;8.50;99.90
21115;DHT22;10715;48.546;9.896;2023-04-24T06:22:26;8.40;99.90
21115;DHT22;10715;48.546;9.896;2023-04-24T06:24:52;8.40;99.90
21115;DHT22;10715;48.546;9.896;2023-04-24T06:27:18;8.30;99.90
21115;DHT22;10715;48.546;9.896;2023-04-24T06:29:43;8.30;99.90
21115;DHT22;10715;48.546;9.896;2023-04-24T06:32:09;8.30;99.90
21115;DHT22;10715;48.546;9.896;2023-04-24T06:34:35;8.20;99.90
21115;DHT22;10715;48.546;9.896;2023-04-24T06:37:02;8.20;99.90
21115;DHT22;10715;48.546;9.896;2023-04-24T06:39:27;8.20;99.90
21115;DHT22;10715;48.546;9.896;2023-04-24T06:41:53;8.20;99.90
21115;DHT22;10715;48.546;9.896;2023-04-24T06:44:19;8.20;99.90
21115;DHT22;10715;48.546;9.896;2023-04-24T06:46:45;8.20;99.90
21115;DHT22;10715;48.546;9.896;2023-04-24T06:49:10;8.20;99.90
21115;DHT22;10715;48.546;9.896;2023-04-24T06:51:36;8.20;99.90
21115;DHT22;10715;48.546;9.896;2023-04-24T06:54:02;8.30;99.90
21115;DHT22;10715;48.546;9.896;2023-04-24T06:56:28;8.30;99.90
21115;DHT22;10715;48.546;9.896;2023-04-24T06:58:54;8.30;99.90
21115;DHT22;10715;48.546;9.896;2023-04-24T07:01:20;8.30;99.90
21115;DHT22;10715;48.546;9.896;2023-04-24T07:03:46;8.40;99.90
21115;DHT22;10715;48.546;9.896;2023-04-24T07:06:12;8.40;99.90
21115;DHT22;10715;48.546;9.896;2023-04-24T07:08:38;8.40;99.90
21115;DHT22;10715;48.546;9.896;2023-04-24T07:11:04;8.40;99.90
21115;DHT22;10715;48.546;9.896;2023-04-24T07:13:31;8.40;99.90
21115;DHT22;10715;48.546;9.896;2023-04-24T07:15:56;8.40;99.90
21115;DHT22;10715;48.546;9.896;2023-04-24T07:18:22;8.40;99.90
21115;DHT22;10715;48.546;9.896;2023-04-24T07:20:48;8.50;99.90
21115;DHT22;10715;48.546;9.896;2023-04-24T07:23:16;8.50;99.90
21115;DHT22;10715;48.546;9.896;2023-04-24T07:25:41;8.50;99.90
21115;DHT22;10715;48.546;9.896;2023-04-24T07:28:07;8.60;99.90
21115;DHT22;10715;48.546;9.896;2023-04-24T07:30:33;8.60;99.90
21115;DHT22;10715;48.546;9.896;2023-04-24T07:32:59;8.60;99.90
21115;DHT22;10715;48.546;9.896;2023-04-24T07:35:26;8.60;99.90
21115;DHT22;10715;48.546;9.896;2023-04-24T07:37:53;8.60;99.90
21115;DHT22;10715;48.546;9.896;2023-04-24T07:40:18;8.60;99.90
21115;DHT22;10715;48.546;9.896;2023-04-24T07:42:44;8.70;99.90
21115;DHT22;10715;48.546;9.896;2023-04-24T07:45:10;8.70;99.90
21115;DHT22;10715;48.546;9.896;2023-04-24T07:47:36;8.70;99.90
21115;DHT22;10715;48.546;9.896;2023-04-24T07:50:05;8.80;99.90
21115;DHT22;10715;48.546;9.896;2023-04-24T07:52:31;8.80;99.90
21115;DHT22;10715;48.546;9.896;2023-04-24T07:54:56;8.80;99.90
21115;DHT22;10715;48.546;9.896;2023-04-24T07:57:25;8.90;99.90
21115;DHT22;10715;48.546;9.896;2023-04-24T07:59:50;8.90;99.90
21115;DHT22;10715;48.546;9.896;2023-04-24T08:02:17;9.00;99.90
21115;DHT22;10715;48.546;9.896;2023-04-24T08:04:42;9.00;99.90
21115;DHT22;10715;48.546;9.896;2023-04-24T08:07:08;9.10;99.90
21115;DHT22;10715;48.546;9.896;2023-04-24T08:09:34;9.10;99.90
21115;DHT22;10715;48.546;9.896;2023-04-24T08:12:00;9.20;99.90
21115;DHT22;10715;48.546;9.896;2023-04-24T08:14:26;9.20;99.90
21115;DHT22;10715;48.546;9.896;2023-04-24T08:16:54;9.20;99.90
21115;DHT22;10715;48.546;9.896;2023-04-24T08:19:21;9.30;99.90
21115;DHT22;10715;48.546;9.896;2023-04-24T08:21:47;9.40;99.90
21115;DHT22;10715;48.546;9.896;2023-04-24T08:24:12;9.50;99.90
21115;DHT22;10715;48.546;9.896;2023-04-24T08:26:38;9.50;99.90
21115;DHT22;10715;48.546;9.896;2023-04-24T08:29:04;9.50;99.90
21115;DHT22;10715;48.546;9.896;2023-04-24T08:31:31;9.60;99.90
21115;DHT22;10715;48.546;9.896;2023-04-24T08:33:57;9.70;99.90
21115;DHT22;10715;48.546;9.896;2023-04-24T08:36:22;9.80;99.90
21115;DHT22;10715;48.546;9.896;2023-04-24T08:38:48;9.90;99.90
21115;DHT22;10715;48.546;9.896;2023-04-24T08:41:15;9.90;99.90
21115;DHT22;10715;48.546;9.896;2023-04-24T08:43:42;10.00;99.90
21115;DHT22;10715;48.546;9.896;2023-04-24T08:46:07;10.00;99.90
21115;DHT22;10715;48.546;9.896;2023-04-24T08:48:34;10.00;99.90
21115;DHT22;10715;48.546;9.896;2023-04-24T08:51:00;10.10;99.90
21115;DHT22;10715;48.546;9.896;2023-04-24T08:53:27;10.20;99.90
21115;DHT22;10715;48.546;9.896;2023-04-24T08:55:55;10.30;99.90
21115;DHT22;10715;48.546;9.896;2023-04-24T08:58:24;10.40;99.90
21115;DHT22;10715;48.546;9.896;2023-04-24T09:00:51;10.40;99.90
21115;DHT22;10715;48.546;9.896;2023-04-24T09:03:17;10.50;99.90
21115;DHT22;10715;48.546;9.896;2023-04-24T09:05:44;10.50;99.90
21115;DHT22;10715;48.546;9.896;2023-04-24T09:08:12;10.60;99.90
21115;DHT22;10715;48.546;9.896;2023-04-24T09:10:39;10.60;99.90
21115;DHT22;10715;48.546;9.896;2023-04-24T09:13:05;10.60;99.90
21115;DHT22;10715;48.546;9.896;2023-04-24T09:15:34;10.50;99.90
21115;DHT22;10715;48.546;9.896;2023-04-24T09:18:01;10.50;99.90
21115;DHT22;10715;48.546;9.896;2023-04-24T09:20:27;10.40;99.90
21115;DHT22;10715;48.546;9.896;2023-04-24T09:22:57;10.30;99.90
21115;DHT22;10715;48.546;9.896;2023-04-24T09:25:34;10.20;99.90
21115;DHT22;10715;48.546;9.896;2023-04-24T09:28:04;10.20;99.90
21115;DHT22;10715;48.546;9.896;2023-04-24T09:30:31;10.20;99.90
21115;DHT22;10715;48.546;9.896;2023-04-24T09:33:15;10.10;99.90
21115;DHT22;10715;48.546;9.896;2023-04-24T09:35:51;10.10;99.90
21115;DHT22;10715;48.546;9.896;2023-04-24T09:38:17;10.00;99.90
21115;DHT22;10715;48.546;9.896;2023-04-24T09:40:43;9.90;99.90
21115;DHT22;10715;48.546;9.896;2023-04-24T09:43:12;10.00;99.90
21115;DHT22;10715;48.546;9.896;2023-04-24T09:45:39;10.10;99.90
21115;DHT22;10715;48.546;9.896;2023-04-24T09:48:07;10.20;99.90
21115;DHT22;10715;48.546;9.896;2023-04-24T09:50:34;10.40;99.90
21115;DHT22;10715;48.546;9.896;2023-04-24T09:53:05;10.50;99.90
21115;DHT22;10715;48.546;9.896;2023-04-24T09:55:31;10.70;99.90
21115;DHT22;10715;48.546;9.896;2023-04-24T09:58:01;10.80;99.90
21115;DHT22;10715;48.546;9.896;2023-04-24T10:00:32;11.00;99.90
21115;DHT22;10715;48.546;9.896;2023-04-24T10:03:03;11.20;99.90
21115;DHT22;10715;48.546;9.896;2023-04-24T10:05:31;11.30;99.90
21115;DHT22;10715;48.546;9.896;2023-04-24T10:08:09;11.30;99.90
21115;DHT22;10715;48.546;9.896;2023-04-24T10:10:46;11.30;99.90
21115;DHT22;10715;48.546;9.896;2023-04-24T10:13:13;11.40;99.90
21115;DHT22;10715;48.546;9.896;2023-04-24T10:15:41;11.40;99.90
21115;DHT22;10715;48.546;9.896;2023-04-24T10:18:08;11.30;99.90
21115;DHT22;10715;48.546;9.896;2023-04-24T10:20:36;11.40;99.90
21115;DHT22;10715;48.546;9.896;2023-04-24T10:23:02;11.30;99.90
21115;DHT22;10715;48.546;9.896;2023-04-24T10:25:30;11.30;99.90
21115;DHT22;10715;48.546;9.896;2023-04-24T10:27:56;11.30;99.90
21115;DHT22;10715;48.546;9.896;2023-04-24T10:30:27;11.20;99.90
21115;DHT22;10715;48.546;9.896;2023-04-24T10:32:53;11.10;99.90
21115;DHT22;10715;48.546;9.896;2023-04-24T10:35:19;11.00;99.90
21115;DHT22;10715;48.546;9.896;2023-04-24T10:37:56;11.00;99.90
21115;DHT22;10715;48.546;9.896;2023-04-24T10:40:29;11.00;99.90
21115;DHT22;10715;48.546;9.896;2023-04-24T10:42:56;11.00;99.90
21115;DHT22;10715;48.546;9.896;2023-04-24T10:45:22;11.10;99.90
21115;DHT22;10715;48.546;9.896;2023-04-24T10:48:08;11.20;99.90
21115;DHT22;10715;48.546;9.896;2023-04-24T10:50:44;11.30;99.90
21115;DHT22;10715;48.546;9.896;2023-04-24T10:53:18;11.30;99.90
21115;DHT22;10715;48.546;9.896;2023-04-24T10:58:10;11.50;99.90
21115;DHT22;10715;48.546;9.896;2023-04-24T11:00:38;11.50;99.90
21115;DHT22;10715;48.546;9.896;2023-04-24T11:03:06;11.60;99.90
21115;DHT22;10715;48.546;9.896;2023-04-24T11:05:53;11.60;99.90
21115;DHT22;10715;48.546;9.896;2023-04-24T11:08:29;11.70;99.90
21115;DHT22;10715;48.546;9.896;2023-04-24T11:10:57;11.70;99.90
21115;DHT22;10715;48.546;9.896;2023-04-24T11:13:25;11.70;99.90
21115;DHT22;10715;48.546;9.896;2023-04-24T11:16:20;11.60;99.90
21115;DHT22;10715;48.546;9.896;2023-04-24T11:18:59;11.40;99.90
21115;DHT22;10715;48.546;9.896;2023-04-24T11:21:27;11.30;99.90
21115;DHT22;10715;48.546;9.896;2023-04-24T11:23:58;11.20;99.90
21115;DHT22;10715;48.546;9.896;2023-04-24T11:26:23;11.10;99.90
21115;DHT22;10715;48.546;9.896;2023-04-24T11:29:08;11.00;99.90
21115;DHT22;10715;48.546;9.896;2023-04-24T11:31:39;11.00;99.90
21115;DHT22;10715;48.546;9.896;2023-04-24T11:34:13;11.00;99.90
21115;DHT22;10715;48.546;9.896;2023-04-24T11:36:42;11.00;99.90
21115;DHT22;10715;48.546;9.896;2023-04-24T11:39:08;11.10;99.90
21115;DHT22;10715;48.546;9.896;2023-04-24T11:41:35;11.00;99.90
21115;DHT22;10715;48.546;9.896;2023-04-24T11:44:01;11.00;99.90
21115;DHT22;10715;48.546;9.896;2023-04-24T11:46:28;11.00;99.90
21115;DHT22;10715;48.546;9.896;2023-04-24T11:48:56;11.00;99.90
21115;DHT22;10715;48.546;9.896;2023-04-24T11:51:26;11.00;99.90
21115;DHT22;10715;48.546;9.896;2023-04-24T11:53:56;10.90;99.90
21115;DHT22;10715;48.546;9.896;2023-04-24T11:56:24;10.90;99.90
21115;DHT22;10715;48.546;9.896;2023-04-24T11:58:53;10.90;99.90
21115;DHT22;10715;48.546;9.896;2023-04-24T12:01:22;10.90;99.90
21115;DHT22;10715;48.546;9.896;2023-04-24T12:03:58;10.90;99.90
21115;DHT22;10715;48.546;9.896;2023-04-24T12:06:24;10.80;99.90
21115;DHT22;10715;48.546;9.896;2023-04-24T12:08:52;10.70;99.90
21115;DHT22;10715;48.546;9.896;2023-04-24T12:11:18;10.60;99.90
21115;DHT22;10715;48.546;9.896;2023-04-24T12:13:44;10.60;99.90
21115;DHT22;10715;48.546;9.896;2023-04-24T12:16:10;10.60;99.90
21115;DHT22;10715;48.546;9.896;2023-04-24T12:18:42;10.60;99.90
21115;DHT22;10715;48.546;9.896;2023-04-24T12:21:15;10.60;99.90
21115;DHT22;10715;48.546;9.896;2023-04-24T12:23:43;10.70;99.90
21115;DHT22;10715;48.546;9.896;2023-04-24T12:26:11;10.60;99.90
21115;DHT22;10715;48.546;9.896;2023-04-24T12:28:38;10.70;99.90
21115;DHT22;10715;48.546;9.896;2023-04-24T12:31:03;10.60;99.90
21115;DHT22;10715;48.546;9.896;2023-04-24T12:33:33;10.70;99.90
21115;DHT22;10715;48.546;9.896;2023-04-24T12:35:59;10.70;99.90
21115;DHT22;10715;48.546;9.896;2023-04-24T12:38:27;10.70;99.90
21115;DHT22;10715;48.546;9.896;2023-04-24T12:41:08;10.70;99.90
21115;DHT22;10715;48.546;9.896;2023-04-24T12:43:35;10.70;99.90
21115;DHT22;10715;48.546;9.896;2023-04-24T12:46:01;10.70;99.90
21115;DHT22;10715;48.546;9.896;2023-04-24T12:48:28;10.70;99.90
21115;DHT22;10715;48.546;9.896;2023-04-24T12:50:54;10.70;99.90
21115;DHT22;10715;48.546;9.896;2023-04-24T12:53:22;10.60;99.90
21115;DHT22;10715;48.546;9.896;2023-04-24T12:55:47;10.60;99.90
21115;DHT22;10715;48.546;9.896;2023-04-24T12:58:19;10.60;99.90
21115;DHT22;10715;48.546;9.896;2023-04-24T13:00:46;10.50;99.90
21115;DHT22;10715;48.546;9.896;2023-04-24T13:03:12;10.60;99.90
21115;DHT22;10715;48.546;9.896;2023-04-24T13:05:37;10.50;99.90
21115;DHT22;10715;48.546;9.896;2023-04-24T13:08:03;10.50;99.90
21115;DHT22;10715;48.546;9.896;2023-04-24T13:10:29;10.50;99.90
21115;DHT22;10715;48.546;9.896;2023-04-24T13:12:55;10.50;99.90
21115;DHT22;10715;48.546;9.896;2023-04-24T13:15:21;10.60;99.90
21115;DHT22;10715;48.546;9.896;2023-04-24T13:17:47;10.50;99.90
21115;DHT22;10715;48.546;9.896;2023-04-24T13:20:13;10.50;99.90
21115;DHT22;10715;48.546;9.896;2023-04-24T13:22:39;10.50;99.90
21115;DHT22;10715;48.546;9.896;2023-04-24T13:25:05;10.50;99.90
21115;DHT22;10715;48.546;9.896;2023-04-24T13:27:31;10.60;99.90
21115;DHT22;10715;48.546;9.896;2023-04-24T13:29:58;10.60;99.90
21115;DHT22;10715;48.546;9.896;2023-04-24T13:32:24;10.60;99.90
21115;DHT22;10715;48.546;9.896;2023-04-24T13:34:50;10.60;99.90
21115;DHT22;10715;48.546;9.896;2023-04-24T13:37:16;10.60;99.90
21115;DHT22;10715;48.546;9.896;2023-04-24T13:39:42;10.60;99.90
21115;DHT22;10715;48.546;9.896;2023-04-24T13:42:08;10.50;99.90
21115;DHT22;10715;48.546;9.896;2023-04-24T13:44:34;10.60;99.90
21115;DHT22;10715;48.546;9.896;2023-04-24T13:47:00;10.60;99.90
21115;DHT22;10715;48.546;9.896;2023-04-24T13:49:26;10.60;99.90
21115;DHT22;10715;48.546;9.896;2023-04-24T13:51:53;10.60;99.90
21115;DHT22;10715;48.546;9.896;2023-04-24T13:54:19;10.60;99.90
21115;DHT22;10715;48.546;9.896;2023-04-24T13:56:45;10.60;99.90
21115;DHT22;10715;48.546;9.896;2023-04-24T13:59:12;10.60;99.90
21115;DHT22;10715;48.546;9.896;2023-04-24T14:01:38;10.70;99.90
21115;DHT22;10715;48.546;9.896;2023-04-24T14:04:04;10.70;99.90
21115;DHT22;10715;48.546;9.896;2023-04-24T14:06:30;10.80;99.90
21115;DHT22;10715;48.546;9.896;2023-04-24T14:08:56;10.80;99.90
21115;DHT22;10715;48.546;9.896;2023-04-24T14:11:22;10.90;99.90
21115;DHT22;10715;48.546;9.896;2023-04-24T14:13:48;11.00;99.90
21115;DHT22;10715;48.546;9.896;2023-04-24T14:16:14;11.10;99.90
21115;DHT22;10715;48.546;9.896;2023-04-24T14:18:40;11.20;99.90
21115;DHT22;10715;48.546;9.896;2023-04-24T14:21:05;11.20;99.90
21115;DHT22;10715;48.546;9.896;2023-04-24T14:23:32;11.20;99.90
21115;DHT22;10715;48.546;9.896;2023-04-24T14:25:58;11.30;99.90
21115;DHT22;10715;48.546;9.896;2023-04-24T14:28:24;11.30;99.90
21115;DHT22;10715;48.546;9.896;2023-04-24T14:30:50;11.30;99.90
21115;DHT22;10715;48.546;9.896;2023-04-24T14:33:16;11.30;99.90
21115;DHT22;10715;48.546;9.896;2023-04-24T14:35:42;11.20;99.90
21115;DHT22;10715;48.546;9.896;2023-04-24T14:38:08;11.10;99.90
21115;DHT22;10715;48.546;9.896;2023-04-24T14:40:34;11.00;99.90
21115;DHT22;10715;48.546;9.896;2023-04-24T14:43:00;11.00;99.90
21115;DHT22;10715;48.546;9.896;2023-04-24T14:45:26;10.90;99.90
21115;DHT22;10715;48.546;9.896;2023-04-24T14:47:53;10.90;99.90
21115;DHT22;10715;48.546;9.896;2023-04-24T14:50:19;10.90;99.90
21115;DHT22;10715;48.546;9.896;2023-04-24T14:52:45;10.90;99.90
21115;DHT22;10715;48.546;9.896;2023-04-24T14:55:11;10.90;99.90
21115;DHT22;10715;48.546;9.896;2023-04-24T14:57:37;10.80;99.90
21115;DHT22;10715;48.546;9.896;2023-04-24T15:00:04;10.80;99.90
21115;DHT22;10715;48.546;9.896;2023-04-24T15:02:32;10.80;99.90
21115;DHT22;10715;48.546;9.896;2023-04-24T15:04:58;10.70;99.90
21115;DHT22;10715;48.546;9.896;2023-04-24T15:07:24;10.70;99.90
21115;DHT22;10715;48.546;9.896;2023-04-24T15:09:50;10.70;99.90
21115;DHT22;10715;48.546;9.896;2023-04-24T15:12:16;10.60;99.90
21115;DHT22;10715;48.546;9.896;2023-04-24T15:14:41;10.60;99.90
21115;DHT22;10715;48.546;9.896;2023-04-24T15:17:07;10.60;99.90
21115;DHT22;10715;48.546;9.896;2023-04-24T15:19:33;10.60;99.90
21115;DHT22;10715;48.546;9.896;2023-04-24T15:21:58;10.60;99.90
21115;DHT22;10715;48.546;9.896;2023-04-24T15:24:24;10.50;99.90
21115;DHT22;10715;48.546;9.896;2023-04-24T15:26:50;10.50;99.90
21115;DHT22;10715;48.546;9.896;2023-04-24T15:29:16;10.50;99.90
21115;DHT22;10715;48.546;9.896;2023-04-24T15:31:41;10.40;99.90
21115;DHT22;10715;48.546;9.896;2023-04-24T15:34:07;10.40;99.90
21115;DHT22;10715;48.546;9.896;2023-04-24T15:36:34;10.40;99.90
21115;DHT22;10715;48.546;9.896;2023-04-24T15:39:01;10.40;99.90
21115;DHT22;10715;48.546;9.896;2023-04-24T15:41:27;10.40;99.90